Ouray, CO

8:23 PM MDT on August 30, 2015 (GMT -0600)
Ouray | | Change Station
CLOSE
Current Station
Personal Weather Station
Location: Ouray, CO
Elevation: 7736 ft
Nearby Weather Stations

Elev 7736 ft 38.03 °N, 107.67 °W | Updated 3 seconds ago

Overcast
Overcast
64.5 °F
Feels Like 64.5 °F
N
7.0
Wind Variable Wind from South
Gusts 10.0 mph

Today
High -- | Low -- °F
--% Chance of Precip.
Yesterday
High -- | Low -- °F
Precip. -- in
6:38 AM 7:43 PM
Full, 97% visible
Pressure 30.40 in
Visibility 10.0 miles
Clouds Overcast 7000 ft
Dew Point 48 °F
Humidity 54%
Rainfall 0.02 in
Snow Depth Not available.
UV 0 out of 12
Pollen 9.90 out of 12
Air Quality Not available.
Flu Activity Not available.
METAR KTEX 310215Z AUTO 17012G19KT 10SM VCTS OVC070 17/06 A3040 RMK AO2 LTG DSNT N AND E T01700059
Pressure 30.40 in
Visibility 10.0 miles
Clouds Overcast 7000 ft
Dew Point 48 °F
Humidity 54%
Rainfall 0.02 in
Snow Depth Not available.
UV 0 out of 12
Pollen 9.90 out of 12
Air Quality Not available.
Flu Activity Not available.
METAR KTEX 310215Z AUTO 17012G19KT 10SM VCTS OVC070 17/06 A3040 RMK AO2 LTG DSNT N AND E T01700059

10-Day Weather Forecast

×

Almanac

Astronomy

Aug. 30, 2015 Rise Set
Actual Time
Civil Twilight
Nautical Twilight
Astronomical Twilight
Moon
Length of Visible Light
Length of Day
Tomorrow will be .
, % of the Moon is Illuminated

Today's Extremes

State Highs State Lows

Community

WunderPhotos

Upload Photos

1,851,157 photos uploaded!

WunderBlogs® & News

Nearby

Air Quality

  Air Quality AQ Index Pollutant
Not available.

Snow Depth

Station Depth Elevation

Earthquake Activity

City Distance Mag. Time & Date
Minimum magnitude displayed is 2.5.

Coastal Water Temperatures

Place Temperature

Stations

Nearby Weather Stations

Station Location Temp. Windchill Dew Point Humidity Wind Precip. Elev Updated Type